createdAt,value
2022-08-14T00:02:26.963Z,4.47
2022-08-14T00:04:55.478Z,4.03
2022-08-14T00:07:24.696Z,4.00
2022-08-14T00:10:01.588Z,4.43
2022-08-14T00:12:53.413Z,4.90
2022-08-14T00:15:29.914Z,4.57
2022-08-14T00:18:07.459Z,4.30
2022-08-14T00:20:42.871Z,4.40
2022-08-14T00:23:17.396Z,4.77
2022-08-14T00:25:53.911Z,4.80
2022-08-14T00:28:29.177Z,4.20
2022-08-14T00:31:00.832Z,4.80
2022-08-14T00:33:51.933Z,4.27
2022-08-14T00:36:36.430Z,4.07
2022-08-14T00:39:09.647Z,4.70
2022-08-14T00:41:38.988Z,4.70
2022-08-14T00:44:08.138Z,4.30
2022-08-14T00:46:37.736Z,4.10
2022-08-14T00:49:05.658Z,4.47
2022-08-14T00:51:37.557Z,4.20
2022-08-14T00:54:16.703Z,4.40
2022-08-14T00:56:49.931Z,4.60
2022-08-14T00:59:17.755Z,4.07
2022-08-14T01:01:46.861Z,4.80
2022-08-14T01:04:38.409Z,4.03
2022-08-14T01:07:08.171Z,4.10
2022-08-14T01:09:39.265Z,4.17
2022-08-14T01:12:08.366Z,4.37
2022-08-14T01:14:36.379Z,4.17
2022-08-14T01:17:04.833Z,4.43
2022-08-14T01:19:54.458Z,4.50
2022-08-14T01:22:26.620Z,4.30
2022-08-14T01:24:55.610Z,4.00
2022-08-14T01:27:28.639Z,4.23
2022-08-14T01:30:03.825Z,4.83
2022-08-14T01:32:44.841Z,4.20
2022-08-14T01:35:17.699Z,4.40
2022-08-14T01:37:56.300Z,4.23
2022-08-14T01:40:25.385Z,4.20
2022-08-14T01:42:59.566Z,4.20
2022-08-14T01:45:28.783Z,4.00
2022-08-14T01:48:03.708Z,4.63
2022-08-14T01:50:32.736Z,4.87
2022-08-14T01:53:03.366Z,4.30
2022-08-14T01:55:31.966Z,4.40
2022-08-14T01:58:20.172Z,4.53
2022-08-14T02:00:54.389Z,4.60
2022-08-14T02:03:24.172Z,4.03
2022-08-14T02:06:03.513Z,4.43
2022-08-14T02:08:53.399Z,4.70
2022-08-14T02:11:24.127Z,4.23
2022-08-14T02:13:56.559Z,4.27
2022-08-14T02:16:26.663Z,4.17
2022-08-14T02:18:56.645Z,3.73
2022-08-14T02:21:31.850Z,4.40
2022-08-14T02:24:39.207Z,3.90
2022-08-14T02:28:25.513Z,4.43
2022-08-14T02:29:56.330Z,4.27
2022-08-14T02:32:36.029Z,4.50
2022-08-14T02:35:18.769Z,4.17
2022-08-14T02:37:49.330Z,4.27
2022-08-14T02:40:19.839Z,4.03
2022-08-14T02:42:55.190Z,4.20
2022-08-14T02:45:25.720Z,4.50
2022-08-14T02:48:02.047Z,4.43
2022-08-14T02:50:33.549Z,4.40
2022-08-14T02:53:03.147Z,4.43
2022-08-14T02:55:33.265Z,4.30
2022-08-14T02:58:03.695Z,4.60
2022-08-14T03:00:35.259Z,4.57
2022-08-14T03:03:07.918Z,4.03
2022-08-14T03:05:41.310Z,4.53
2022-08-14T03:08:15.891Z,4.07
2022-08-14T03:10:50.211Z,5.03
2022-08-14T03:13:21.628Z,4.60
2022-08-14T03:15:56.025Z,4.33
2022-08-14T03:18:31.628Z,4.30
2022-08-14T03:21:02.883Z,4.67
2022-08-14T03:23:34.074Z,4.80
2022-08-14T03:26:07.077Z,4.30
2022-08-14T03:28:36.763Z,3.37
2022-08-14T03:31:08.428Z,4.43
2022-08-14T03:33:41.788Z,4.57
2022-08-14T03:37:51.594Z,4.90
2022-08-14T03:39:13.038Z,4.83
2022-08-14T03:41:48.590Z,4.50
2022-08-14T03:45:18.684Z,4.60
2022-08-14T03:47:04.457Z,5.20
2022-08-14T03:49:34.021Z,4.73
2022-08-14T03:52:18.043Z,4.50
2022-08-14T03:54:53.048Z,4.90
2022-08-14T03:57:22.742Z,5.13
2022-08-14T03:59:51.627Z,4.87
2022-08-14T04:02:32.400Z,4.30
2022-08-14T04:05:11.682Z,4.30
2022-08-14T04:07:49.838Z,4.40
2022-08-14T04:10:32.513Z,4.40
2022-08-14T04:13:04.021Z,4.57
2022-08-14T04:15:40.947Z,4.67
2022-08-14T04:18:20.761Z,4.93
2022-08-14T04:20:54.258Z,4.90
2022-08-14T04:23:29.929Z,4.30
2022-08-14T04:26:02.340Z,4.30
2022-08-14T04:29:02.129Z,4.70
2022-08-14T04:32:58.615Z,4.60
2022-08-14T04:34:11.944Z,3.93
2022-08-14T04:37:07.501Z,5.10
2022-08-14T04:39:56.810Z,4.50
2022-08-14T04:42:47.589Z,4.50
2022-08-14T04:45:23.237Z,4.93
2022-08-14T04:48:10.037Z,4.30
2022-08-14T04:50:45.072Z,4.40
2022-08-14T04:53:14.827Z,4.67
2022-08-14T04:55:45.066Z,4.80
2022-08-14T04:58:21.436Z,4.73
2022-08-14T05:01:02.745Z,4.50
2022-08-14T05:03:33.233Z,4.90
2022-08-14T05:06:02.994Z,4.40
2022-08-14T05:08:31.772Z,4.20
2022-08-14T05:11:13.467Z,4.60
2022-08-14T05:16:32.988Z,4.73
2022-08-14T05:19:19.161Z,3.90
2022-08-14T05:22:00.579Z,4.63
2022-08-14T05:24:36.448Z,4.60
2022-08-14T05:27:05.407Z,4.60
2022-08-14T05:32:06.382Z,4.60
2022-08-14T05:34:34.124Z,5.07
2022-08-14T05:37:04.095Z,5.17
2022-08-14T05:39:34.956Z,4.77
2022-08-14T05:42:10.168Z,4.20
2022-08-14T05:44:50.160Z,4.90
2022-08-14T05:47:23.319Z,4.80
2022-08-14T05:49:51.447Z,4.60
2022-08-14T05:52:26.356Z,5.20
2022-08-14T05:55:09.228Z,5.40
2022-08-14T05:57:47.542Z,4.17
2022-08-14T06:00:29.011Z,4.67
2022-08-14T06:03:00.878Z,4.60
2022-08-14T06:05:35.109Z,4.63
2022-08-14T06:08:08.466Z,4.53
2022-08-14T06:10:36.596Z,4.20
2022-08-14T06:13:04.678Z,4.00
2022-08-14T06:15:32.401Z,4.60
2022-08-14T06:18:01.943Z,4.60
2022-08-14T06:20:30.660Z,4.97
2022-08-14T06:23:00.025Z,4.43
2022-08-14T06:25:28.201Z,4.30
2022-08-14T06:27:58.233Z,4.70
2022-08-14T06:30:45.613Z,4.90
2022-08-14T06:33:18.026Z,4.80
2022-08-14T06:35:47.320Z,4.50
2022-08-14T06:38:19.575Z,5.00
2022-08-14T06:40:50.157Z,5.03
2022-08-14T06:43:19.957Z,4.47
2022-08-14T06:45:54.398Z,4.23
2022-08-14T06:48:26.726Z,5.00
2022-08-14T06:50:58.125Z,4.20
2022-08-14T06:53:28.296Z,4.37
2022-08-14T06:56:02.135Z,4.70
2022-08-14T06:58:32.111Z,4.30
2022-08-14T07:01:24.930Z,4.30
2022-08-14T07:04:23.684Z,4.90
2022-08-14T07:06:55.690Z,4.77
2022-08-14T07:09:43.647Z,4.03
2022-08-14T07:12:56.064Z,4.20
2022-08-14T07:15:06.677Z,4.70
2022-08-14T07:17:36.306Z,4.43
2022-08-14T07:20:07.978Z,5.73
2022-08-14T07:22:56.051Z,4.93
2022-08-14T07:25:32.683Z,4.90
2022-08-14T07:28:01.740Z,4.93
2022-08-14T07:30:34.107Z,4.60
2022-08-14T07:33:03.129Z,4.80
2022-08-14T07:35:42.979Z,4.60
2022-08-14T07:38:21.603Z,4.20
2022-08-14T07:40:53.025Z,4.80
2022-08-14T07:43:21.390Z,4.30
2022-08-14T07:45:50.888Z,4.40
2022-08-14T07:48:25.248Z,4.27
2022-08-14T07:51:03.024Z,4.30
2022-08-14T07:53:39.323Z,4.07
2022-08-14T07:56:43.756Z,4.17
2022-08-14T07:58:58.746Z,4.30
2022-08-14T08:01:29.901Z,4.13
2022-08-14T08:04:00.164Z,4.20
2022-08-14T08:06:30.654Z,3.70
2022-08-14T08:09:03.033Z,4.00
2022-08-14T08:11:34.933Z,3.90
2022-08-14T08:14:10.455Z,3.40
2022-08-14T08:16:44.411Z,3.37
2022-08-14T08:19:14.305Z,3.37
2022-08-14T08:21:45.101Z,3.70
2022-08-14T08:24:18.555Z,4.57
2022-08-14T08:26:48.009Z,3.53
2022-08-14T08:29:25.094Z,3.90
2022-08-14T08:32:01.931Z,4.20
2022-08-14T08:34:45.315Z,4.13
2022-08-14T08:37:15.920Z,4.67
2022-08-14T08:40:03.266Z,4.10
2022-08-14T08:42:38.678Z,4.00
2022-08-14T08:45:15.711Z,3.47
2022-08-14T08:47:45.598Z,3.50
2022-08-14T08:50:31.403Z,3.70
2022-08-14T08:53:02.645Z,3.60
2022-08-14T08:55:33.970Z,3.10
2022-08-14T08:58:04.359Z,3.10
2022-08-14T09:00:36.135Z,3.77
2022-08-14T09:03:09.966Z,3.30
2022-08-14T09:05:40.399Z,3.60
2022-08-14T09:08:26.601Z,3.70
2022-08-14T09:11:01.190Z,3.60
2022-08-14T09:13:30.438Z,3.67
2022-08-14T09:15:58.823Z,3.20
2022-08-14T09:18:27.219Z,3.30
2022-08-14T09:20:58.889Z,3.43
2022-08-14T09:23:35.107Z,3.50
2022-08-14T09:26:21.264Z,3.40
2022-08-14T09:28:49.883Z,3.90
2022-08-14T09:31:19.609Z,3.30
2022-08-14T09:34:27.555Z,3.90
2022-08-14T09:37:23.224Z,3.90
2022-08-14T09:40:04.607Z,3.90
2022-08-14T09:42:51.590Z,3.67
2022-08-14T09:45:20.888Z,4.60
2022-08-14T09:47:52.133Z,4.03
2022-08-14T09:50:26.877Z,4.27
2022-08-14T09:52:57.699Z,4.00
2022-08-14T09:55:41.289Z,4.00
2022-08-14T09:58:19.986Z,3.60
2022-08-14T10:00:53.950Z,3.70
2022-08-14T10:03:33.899Z,4.10
2022-08-14T10:06:09.880Z,3.93
2022-08-14T10:08:51.208Z,3.97
2022-08-14T10:11:23.873Z,3.87
2022-08-14T10:13:56.087Z,3.30
2022-08-14T10:16:33.402Z,3.40
2022-08-14T10:19:09.805Z,3.97
2022-08-14T10:23:13.645Z,3.97
2022-08-14T10:24:36.049Z,3.90
2022-08-14T10:27:16.307Z,4.00
2022-08-14T10:29:51.598Z,4.03
2022-08-14T10:32:29.035Z,3.67
2022-08-14T10:35:13.718Z,3.87
2022-08-14T10:37:45.710Z,3.60
2022-08-14T10:40:37.354Z,3.67
2022-08-14T10:43:16.853Z,3.60
2022-08-14T10:46:04.143Z,4.03
2022-08-14T10:48:45.814Z,4.43
2022-08-14T10:51:16.885Z,3.30
2022-08-14T10:53:56.906Z,4.57
2022-08-14T10:56:34.184Z,4.20
2022-08-14T10:59:05.589Z,3.87
2022-08-14T11:01:38.483Z,3.73
2022-08-14T11:04:25.980Z,3.87
2022-08-14T11:06:56.270Z,4.13
2022-08-14T11:09:26.390Z,3.87
2022-08-14T11:12:33.845Z,4.00
2022-08-14T11:14:56.353Z,3.80
2022-08-14T11:17:32.052Z,3.73
2022-08-14T11:20:01.606Z,3.67
2022-08-14T11:22:52.576Z,4.10
2022-08-14T11:25:21.225Z,4.43
2022-08-14T11:27:49.463Z,3.80
2022-08-14T11:30:50.710Z,3.70
2022-08-14T11:33:10.058Z,3.80
2022-08-14T11:35:47.883Z,4.10
2022-08-14T11:38:17.876Z,3.87
2022-08-14T11:40:47.426Z,4.20
2022-08-14T11:43:16.650Z,3.70
2022-08-14T11:45:49.493Z,3.73
2022-08-14T11:49:02.168Z,4.00
2022-08-14T11:51:15.407Z,3.50
2022-08-14T11:53:45.711Z,4.13
2022-08-14T11:56:13.909Z,4.07
2022-08-14T11:58:42.314Z,4.03
2022-08-14T12:01:11.706Z,3.93
2022-08-14T12:03:46.733Z,4.13
2022-08-14T12:06:29.420Z,3.60
2022-08-14T12:09:03.799Z,3.77
2022-08-14T12:11:41.385Z,3.80
2022-08-14T12:14:13.368Z,3.50
2022-08-14T12:17:05.097Z,3.40
2022-08-14T12:19:33.533Z,3.73
2022-08-14T12:22:01.423Z,3.33
2022-08-14T12:24:32.079Z,3.77
2022-08-14T12:27:04.170Z,4.10
2022-08-14T12:29:32.178Z,3.70
2022-08-14T12:32:09.165Z,3.23
2022-08-14T12:34:45.083Z,3.60
2022-08-14T12:37:13.234Z,3.40
2022-08-14T12:39:41.156Z,3.13
2022-08-14T12:42:11.776Z,2.90
2022-08-14T12:44:58.657Z,3.20
2022-08-14T12:47:31.284Z,2.70
2022-08-14T12:49:59.642Z,2.90
2022-08-14T12:52:41.619Z,2.63
2022-08-14T12:55:21.855Z,3.30
2022-08-14T12:57:53.336Z,2.70
2022-08-14T13:00:23.938Z,2.93
2022-08-14T13:02:56.791Z,2.50
2022-08-14T13:05:27.489Z,3.03
2022-08-14T13:07:57.263Z,2.83
2022-08-14T13:10:46.525Z,2.73
2022-08-14T13:13:18.255Z,2.80
2022-08-14T13:15:47.329Z,2.47
2022-08-14T13:18:17.916Z,2.43
2022-08-14T13:20:51.411Z,2.83
2022-08-14T13:23:32.255Z,2.50
2022-08-14T13:26:00.846Z,2.80
2022-08-14T13:28:32.611Z,2.40
2022-08-14T13:31:08.933Z,2.47
2022-08-14T13:33:41.436Z,2.40
2022-08-14T13:36:24.002Z,3.20
2022-08-14T13:38:53.778Z,2.70
2022-08-14T13:41:28.054Z,2.50
2022-08-14T13:44:04.495Z,2.03
2022-08-14T13:46:32.905Z,2.20
2022-08-14T13:49:02.416Z,2.57
2022-08-14T13:51:37.049Z,2.10
2022-08-14T13:54:10.320Z,2.20
2022-08-14T13:56:42.150Z,2.40
2022-08-14T13:59:11.303Z,2.27
2022-08-14T14:01:43.615Z,2.37
2022-08-14T14:04:18.855Z,2.73
2022-08-14T14:06:49.903Z,2.77
2022-08-14T14:09:26.383Z,2.30
2022-08-14T14:12:01.389Z,2.33
2022-08-14T14:14:51.228Z,2.33
2022-08-14T14:17:24.473Z,2.40
2022-08-14T14:19:53.743Z,2.23
2022-08-14T14:22:44.956Z,2.57
2022-08-14T14:25:10.145Z,3.13
2022-08-14T14:27:42.120Z,3.00
2022-08-14T14:30:46.353Z,2.90
2022-08-14T14:33:02.206Z,2.20
2022-08-14T14:35:38.410Z,2.30
2022-08-14T14:38:08.623Z,2.63
2022-08-14T14:40:52.087Z,2.57
2022-08-14T14:43:28.089Z,2.70
2022-08-14T14:45:56.577Z,2.50
2022-08-14T14:48:31.402Z,2.50
2022-08-14T14:51:02.154Z,3.23
2022-08-14T14:53:39.121Z,2.60
2022-08-14T14:56:47.804Z,2.37
2022-08-14T14:58:57.675Z,2.53
2022-08-14T15:01:26.175Z,2.60
2022-08-14T15:03:56.353Z,2.90
2022-08-14T15:06:30.201Z,2.90
2022-08-14T15:08:59.962Z,2.90
2022-08-14T15:11:30.465Z,2.80
2022-08-14T15:14:00.314Z,2.97
2022-08-14T15:16:28.337Z,2.97
2022-08-14T15:18:56.216Z,3.70
2022-08-14T15:21:27.365Z,3.50
2022-08-14T15:23:55.476Z,2.70
2022-08-14T15:26:32.077Z,3.10
2022-08-14T15:29:03.232Z,2.70
2022-08-14T15:31:34.680Z,3.23
2022-08-14T15:34:43.646Z,2.90
2022-08-14T15:37:04.314Z,3.20
2022-08-14T15:39:35.394Z,3.13
2022-08-14T15:42:14.736Z,3.53
2022-08-14T15:44:58.156Z,3.30
2022-08-14T15:47:30.835Z,3.00
2022-08-14T15:50:00.376Z,3.47
2022-08-14T15:52:35.090Z,3.00
2022-08-14T15:55:06.243Z,3.20
2022-08-14T15:57:35.548Z,3.10
2022-08-14T16:00:37.871Z,3.40
2022-08-14T16:03:14.099Z,3.27
2022-08-14T16:05:43.683Z,3.27
2022-08-14T16:08:26.657Z,3.30
2022-08-14T16:10:57.653Z,3.33
2022-08-14T16:13:41.431Z,3.70
2022-08-14T16:16:49.244Z,3.60
2022-08-14T16:19:09.721Z,3.67
2022-08-14T16:21:40.440Z,3.00
2022-08-14T16:24:27.032Z,2.97
2022-08-14T16:27:00.696Z,3.00
2022-08-14T16:29:29.887Z,3.07
2022-08-14T16:32:32.573Z,3.20
2022-08-14T16:35:04.719Z,3.30
2022-08-14T16:37:35.264Z,3.20
2022-08-14T16:40:05.761Z,3.40
2022-08-14T16:43:04.429Z,3.93
2022-08-14T16:45:30.349Z,3.60
2022-08-14T16:47:58.325Z,4.27
2022-08-14T16:50:43.191Z,5.03
2022-08-14T16:53:17.179Z,4.00
2022-08-14T16:55:53.243Z,3.60
2022-08-14T16:58:30.278Z,3.67
2022-08-14T17:01:22.756Z,4.53
2022-08-14T17:03:56.526Z,3.60
2022-08-14T17:06:46.845Z,3.30
2022-08-14T17:09:35.880Z,3.20
2022-08-14T17:12:10.250Z,3.50
2022-08-14T17:15:10.573Z,3.53
2022-08-14T17:17:57.870Z,3.90
2022-08-14T17:20:54.747Z,3.50
2022-08-14T17:23:15.113Z,3.90
2022-08-14T17:25:50.807Z,10.03
2022-08-14T17:28:49.688Z,6.90
2022-08-14T17:31:12.091Z,5.87
2022-08-14T17:33:44.741Z,4.47
2022-08-14T17:36:22.464Z,4.10
2022-08-14T17:42:01.934Z,4.00
2022-08-14T17:44:45.263Z,3.23
2022-08-14T17:47:18.139Z,3.60
2022-08-14T17:49:51.733Z,3.87
2022-08-14T17:52:34.957Z,3.37
2022-08-14T17:55:05.732Z,3.83
2022-08-14T17:57:41.217Z,4.50
2022-08-14T18:00:14.702Z,4.70
2022-08-14T18:02:50.458Z,3.90
2022-08-14T18:05:23.393Z,3.80
2022-08-14T18:08:34.204Z,3.97
2022-08-14T18:11:01.856Z,3.70
2022-08-14T18:13:49.998Z,3.80
2022-08-14T18:16:22.183Z,3.80
2022-08-14T18:18:51.587Z,3.90
2022-08-14T18:21:24.129Z,3.70
2022-08-14T18:24:20.146Z,4.10
2022-08-14T18:27:03.455Z,3.70
2022-08-14T18:29:43.387Z,3.60
2022-08-14T18:32:47.313Z,4.30
2022-08-14T18:35:45.728Z,3.83
2022-08-14T18:38:25.342Z,4.03
2022-08-14T18:40:56.037Z,3.93
2022-08-14T18:43:44.773Z,4.03
2022-08-14T18:47:00.977Z,3.73
2022-08-14T18:49:17.439Z,4.07
2022-08-14T18:51:46.915Z,4.50
2022-08-14T18:54:37.090Z,3.93
2022-08-14T18:57:06.002Z,3.53
2022-08-14T18:59:43.222Z,4.00
2022-08-14T19:02:43.536Z,3.27
2022-08-14T19:05:13.364Z,3.20
2022-08-14T19:07:43.290Z,3.67
2022-08-14T19:10:31.789Z,2.80
2022-08-14T19:13:11.880Z,3.80
2022-08-14T19:15:43.641Z,3.70
2022-08-14T19:18:26.735Z,3.10
2022-08-14T19:21:00.042Z,3.20
2022-08-14T19:23:42.747Z,3.33
2022-08-14T19:26:35.743Z,3.20
2022-08-14T19:29:36.058Z,3.60
2022-08-14T19:32:27.063Z,3.73
2022-08-14T19:34:55.708Z,3.50
2022-08-14T19:37:52.618Z,3.67
2022-08-14T19:40:34.117Z,3.83
2022-08-14T19:43:06.627Z,3.60
2022-08-14T19:45:35.287Z,4.00
2022-08-14T19:48:03.794Z,3.43
2022-08-14T19:50:40.189Z,3.50
2022-08-14T19:53:17.650Z,3.60
2022-08-14T19:55:59.394Z,4.00
2022-08-14T19:58:54.532Z,4.40
2022-08-14T20:01:27.386Z,4.10
2022-08-14T20:04:45.222Z,4.57
2022-08-14T20:06:57.516Z,3.90
2022-08-14T20:11:05.841Z,4.20
2022-08-14T20:12:34.750Z,4.50
2022-08-14T20:15:08.467Z,4.10
2022-08-14T20:17:40.753Z,4.53
2022-08-14T20:20:21.091Z,5.43
2022-08-14T20:23:11.267Z,3.77
2022-08-14T20:25:55.771Z,4.70
2022-08-14T20:28:35.399Z,4.87
2022-08-14T20:31:15.899Z,4.80
2022-08-14T20:34:04.964Z,4.13
2022-08-14T20:36:37.918Z,4.77
2022-08-14T20:39:10.403Z,4.50
2022-08-14T20:41:51.165Z,5.13
2022-08-14T20:44:40.779Z,4.47
2022-08-14T20:47:15.241Z,4.60
2022-08-14T20:49:43.164Z,4.17
2022-08-14T20:52:19.873Z,3.93
2022-08-14T20:54:51.420Z,4.20
2022-08-14T20:57:20.946Z,4.20
2022-08-14T20:59:53.420Z,5.17
2022-08-14T21:02:49.706Z,4.53
2022-08-14T21:05:22.460Z,5.17
2022-08-14T21:08:09.793Z,4.70
2022-08-14T21:10:51.336Z,4.20
2022-08-14T21:13:52.599Z,4.80
2022-08-14T21:16:34.656Z,5.20
2022-08-14T21:18:59.993Z,5.37
2022-08-14T21:21:40.474Z,4.90
2022-08-14T21:24:09.150Z,4.57
2022-08-14T21:27:12.381Z,4.67
2022-08-14T21:29:53.506Z,4.70
2022-08-14T21:32:34.963Z,4.50
2022-08-14T21:35:08.632Z,4.67
2022-08-14T21:37:46.008Z,4.90
2022-08-14T21:40:40.445Z,4.90
2022-08-14T21:43:17.412Z,4.70
2022-08-14T21:45:53.646Z,4.80
2022-08-14T21:48:26.282Z,4.80
2022-08-14T21:51:01.150Z,5.30
2022-08-14T21:53:58.972Z,5.13
2022-08-14T21:56:37.249Z,5.10
2022-08-14T21:59:09.403Z,4.53
2022-08-14T22:02:01.918Z,4.67
2022-08-14T22:04:32.074Z,5.07
2022-08-14T22:07:05.484Z,4.87
2022-08-14T22:09:36.496Z,5.27
2022-08-14T22:12:07.295Z,5.27
2022-08-14T22:14:43.801Z,5.00
2022-08-14T22:17:16.383Z,5.27
2022-08-14T22:19:54.471Z,4.70
2022-08-14T22:22:26.384Z,4.83
2022-08-14T22:24:59.953Z,4.80
2022-08-14T22:27:29.511Z,4.90
2022-08-14T22:29:59.552Z,5.23
2022-08-14T22:32:56.910Z,5.10
2022-08-14T22:35:15.775Z,4.30
2022-08-14T22:37:45.180Z,4.67
2022-08-14T22:40:51.949Z,4.70
2022-08-14T22:43:08.201Z,4.10
2022-08-14T22:45:37.802Z,5.50
2022-08-14T22:48:10.655Z,3.90
2022-08-14T22:50:49.207Z,4.40
2022-08-14T22:53:23.057Z,4.70
2022-08-14T22:55:51.924Z,4.10
2022-08-14T22:58:31.858Z,4.30
2022-08-14T23:01:10.548Z,4.60
2022-08-14T23:03:42.245Z,4.40
2022-08-14T23:07:02.436Z,4.57
2022-08-14T23:09:36.053Z,4.60
2022-08-14T23:11:50.544Z,5.10
2022-08-14T23:14:23.952Z,5.13
2022-08-14T23:16:57.317Z,4.73
2022-08-14T23:19:34.903Z,4.43
2022-08-14T23:22:05.103Z,4.60
2022-08-14T23:24:36.111Z,4.40
2022-08-14T23:27:20.690Z,4.27
2022-08-14T23:29:54.380Z,4.50
2022-08-14T23:32:22.138Z,4.00
2022-08-14T23:34:51.558Z,4.37
2022-08-14T23:37:19.501Z,4.20
2022-08-14T23:39:56.344Z,4.70
2022-08-14T23:42:40.157Z,4.70
2022-08-14T23:45:09.647Z,4.67
2022-08-14T23:47:51.820Z,5.00
2022-08-14T23:50:34.426Z,4.87
2022-08-14T23:53:28.634Z,4.80
2022-08-14T23:56:08.556Z,4.40
2022-08-14T23:58:37.183Z,5.13
